Latest Weather Observations for South Channel Island

IDV60801

Issued at 1:12 am EDT Wednesday 29 January 2020 (issued every 10 minutes, with the page automatically refreshed every 10 minutes)

About weather observations | Map of weather stations | Latest weather observations for VIC | Other Formats
Station Details ID: 086344 Name: SOUTH CHANNEL ISLAND Lat: -38.31 Lon: 144.80 Height: 9.0 m
Data from the previous 72 hours. | See also: Recent months at South Channel Island
Date/Time
EDT
Temp
°C
App
Temp
°C
Dew
Point
°C
Rel
Hum
%
Delta-T
°C
Wind Press
QNH
hPa
Press
MSL
hPa
Rain since
9am
mm
Dir  Spd
km/h
Gust
km/h
Spd
kts
Gust
kts
29/01:00am - - - - - S 15 17 8 9 - - -
29/12:30am - - - - - SSW 13 17 7 9 - - -
29/12:00am - - - - - SSW 13 17 7 9 - - -
 
Date/Time
EDT
Temp
°C
App
Temp
°C
Dew
Point
°C
Rel
Hum
%
Delta-T
°C
Wind Press
QNH
hPa
Press
MSL
hPa
Rain since
9am
mm
Dir  Spd
km/h
Gust
km/h
Spd
kts
Gust
kts
28/11:30pm - - - - - SSW 17 20 9 11 - - -
28/11:00pm - - - - - S 15 17 8 9 - - -
28/10:30pm - - - - - S 17 19 9 10 - - -
28/10:00pm - - - - - S 17 19 9 10 - - -
28/09:30pm - - - - - S 17 20 9 11 - - -
28/09:00pm - - - - - S 20 26 11 14 - - -
28/08:30pm - - - - - S 28 33 15 18 - - -
28/08:00pm - - - - - S 28 33 15 18 - - -
28/07:30pm - - - - - S 30 35 16 19 - - -
28/07:00pm - - - - - S 30 35 16 19 - - -
28/06:30pm - - - - - S 28 35 15 19 - - -
28/06:00pm - - - - - S 33 37 18 20 - - -
28/05:30pm - - - - - S 32 37 17 20 - - -
28/05:00pm - - - - - S 33 39 18 21 - - -
28/04:30pm - - - - - S 33 37 18 20 - - -
28/04:00pm - - - - - S 24 28 13 15 - - -
28/03:30pm - - - - - SSW 24 28 13 15 - - -
28/03:00pm - - - - - SSW 17 19 9 10 - - -
28/02:30pm - - - - - SSW 7 9 4 5 - - -
28/02:00pm - - - - - S 11 13 6 7 - - -
28/01:30pm - - - - - S 9 15 5 8 - - -
28/01:00pm - - - - - N 6 9 3 5 - - -
28/12:30pm - - - - - N 6 7 3 4 - - -
28/12:00pm - - - - - N 7 9 4 5 - - -
28/11:30am - - - - - WNW 7 11 4 6 - - -
28/11:00am - - - - - WSW 9 11 5 6 - - -
28/10:30am - - - - - W 13 17 7 9 - - -
28/10:00am - - - - - WSW 13 15 7 8 - - -
28/09:30am - - - - - W 13 17 7 9 - - -
28/09:00am - - - - - WSW 13 15 7 8 - - -
28/08:30am - - - - - W 13 15 7 8 - - -
28/08:00am - - - - - SW 9 11 5 6 - - -
28/07:30am - - - - - SW 9 11 5 6 - - -
28/07:00am - - - - - SW 13 15 7 8 - - -
28/06:30am - - - - - SW 11 13 6 7 - - -
28/06:00am - - - - - SW 9 11 5 6 - - -
28/05:30am - - - - - SSW 9 15 5 8 - - -
28/05:00am - - - - - S 4 13 2 7 - - -
28/04:30am - - - - - CALM 0 0 0 0 - - -
28/04:00am - - - - - S 7 11 4 6 - - -
28/03:30am - - - - - ESE 7 9 4 5 - - -
28/03:00am - - - - - SSE 9 11 5 6 - - -
28/02:30am - - - - - SSE 13 15 7 8 - - -
28/02:00am - - - - - SSE 15 17 8 9 - - -
28/01:30am - - - - - S 15 19 8 10 - - -
28/01:00am - - - - - S 15 19 8 10 - - -
28/12:30am - - - - - S 17 19 9 10 - - -
28/12:00am - - - - - S 19 22 10 12 - - -
 
Date/Time
EDT
Temp
°C
App
Temp
°C
Dew
Point
°C
Rel
Hum
%
Delta-T
°C
Wind Press
QNH
hPa
Press
MSL
hPa
Rain since
9am
mm
Dir  Spd
km/h
Gust
km/h
Spd
kts
Gust
kts
27/11:30pm - - - - - SSE 17 19 9 10 - - -
27/11:00pm - - - - - SE 17 19 9 10 - - -
27/10:30pm - - - - - SE 15 17 8 9 - - -
27/10:00pm - - - - - SE 17 19 9 10 - - -
27/09:30pm - - - - - SSE 17 19 9 10 - - -
27/09:00pm - - - - - SSE 20 26 11 14 - - -
27/08:30pm - - - - - S 24 30 13 16 - - -
27/08:00pm - - - - - S 22 26 12 14 - - -
27/07:30pm - - - - - S 28 33 15 18 - - -
27/07:00pm - - - - - S 33 37 18 20 - - -
27/06:30pm - - - - - S 30 33 16 18 - - -
27/06:00pm - - - - - S 32 35 17 19 - - -
27/05:30pm - - - - - S 30 33 16 18 - - -
27/05:00pm - - - - - S 28 33 15 18 - - -
27/04:30pm - - - - - SSW 28 32 15 17 - - -
27/04:00pm - - - - - SSW 28 32 15 17 - - -
27/03:30pm - - - - - S 24 28 13 15 - - -
27/03:00pm - - - - - S 26 30 14 16 - - -
27/02:30pm - - - - - SSW 22 26 12 14 - - -
27/02:00pm - - - - - SSW 20 24 11 13 - - -
27/01:30pm - - - - - S 13 15 7 8 - - -
27/01:00pm - - - - - S 6 7 3 4 - - -
27/12:30pm - - - - - SSW 9 11 5 6 - - -
27/12:00pm - - - - - SSW 15 17 8 9 - - -
27/11:30am - - - - - SSW 20 26 11 14 - - -
27/11:00am - - - - - SSW 20 28 11 15 - - -
27/10:30am - - - - - SW 17 24 9 13 - - -
27/10:00am - - - - - SW 9 13 5 7 - - -
27/09:30am - - - - - SW 9 11 5 6 - - -
27/09:00am - - - - - SSW 7 11 4 6 - - -
27/08:30am - - - - - N 2 7 1 4 - - -
27/08:00am - - - - - NE 11 15 6 8 - - -
27/07:30am - - - - - NNE 11 15 6 8 - - -
27/07:00am - - - - - NNE 4 9 2 5 - - -
27/06:30am - - - - - NE 7 9 4 5 - - -
27/06:00am - - - - - NE 7 9 4 5 - - -
27/05:30am - - - - - ENE 9 11 5 6 - - -
27/05:00am - - - - - NE 9 13 5 7 - - -
27/04:30am - - - - - NE 11 15 6 8 - - -
27/04:00am - - - - - E 9 13 5 7 - - -
27/03:30am - - - - - ENE 9 13 5 7 - - -
27/03:00am - - - - - ENE 9 11 5 6 - - -
27/02:30am - - - - - NE 9 11 5 6 - - -
27/02:00am - - - - - ENE 11 13 6 7 - - -
27/01:30am - - - - - E 11 15 6 8 - - -
27/01:00am - - - - - E 15 19 8 10 - - -
27/12:30am - - - - - ESE 13 17 7 9 - - -
27/12:00am - - - - - SSE 13 15 7 8 - - -
 
Date/Time
EDT
Temp
°C
App
Temp
°C
Dew
Point
°C
Rel
Hum
%
Delta-T
°C
Wind Press
QNH
hPa
Press
MSL
hPa
Rain since
9am
mm
Dir  Spd
km/h
Gust
km/h
Spd
kts
Gust
kts
26/11:30pm - - - - - SE 13 17 7 9 - - -
26/11:00pm - - - - - SSE 19 24 10 13 - - -
26/10:30pm - - - - - S 19 24 10 13 - - -
26/10:00pm - - - - - S 22 28 12 15 - - -
26/09:30pm - - - - - S 26 30 14 16 - - -
26/09:00pm - - - - - SSW 30 35 16 19 - - -
26/08:30pm - - - - - S 32 37 17 20 - - -
26/08:00pm - - - - - S 32 37 17 20 - - -
26/07:30pm - - - - - S 32 37 17 20 - - -
26/07:00pm - - - - - S 32 39 17 21 - - -
26/06:30pm - - - - - S 33 37 18 20 - - -
26/06:00pm - - - - - S 32 37 17 20 - - -
26/05:30pm - - - - - S 30 35 16 19 - - -
26/05:00pm - - - - - SSW 35 39 19 21 - - -
26/04:30pm - - - - - SSW 32 37 17 20 - - -
26/04:00pm - - - - - SSW 28 30 15 16 - - -
26/03:30pm - - - - - SSW 30 33 16 18 - - -
26/03:00pm - - - - - SSW 26 30 14 16 - - -
26/02:30pm - - - - - SSW 20 26 11 14 - - -
26/02:00pm - - - - - SSW 20 26 11 14 - - -
26/01:30pm - - - - - SW 35 43 19 23 - - -
26/01:00pm - - - - - SW 35 44 19 24 - - -
26/12:30pm - - - - - SSW 37 48 20 26 - - -
26/12:23pm - - - - - SW 30 48 16 26 - - -
26/12:00pm - - - - - WSW 26 32 14 17 - - -
26/11:30am - - - - - WSW 32 37 17 20 - - -
26/11:00am - - - - - WSW 30 35 16 19 - - -
26/10:30am - - - - - WSW 20 24 11 13 - - -
26/10:00am - - - - - WSW 19 22 10 12 - - -
26/09:30am - - - - - NW 15 17 8 9 - - -
26/09:00am - - - - - NW 15 17 8 9 - - -
26/08:30am - - - - - NW 11 13 6 7 - - -
26/08:00am - - - - - W 6 7 3 4 - - -
26/07:30am - - - - - SW 4 7 2 4 - - -
26/07:00am - - - - - SW 15 17 8 9 - - -
26/06:30am - - - - - SSW 11 13 6 7 - - -
26/06:00am - - - - - SSW 11 13 6 7 - - -
26/05:30am - - - - - SSW 15 17 8 9 - - -
26/05:00am - - - - - SSW 13 13 7 7 - - -
26/04:30am - - - - - SSW 13 13 7 7 - - -
26/04:00am - - - - - SSW 15 15 8 8 - - -
26/03:30am - - - - - SSW 13 15 7 8 - - -
26/03:00am - - - - - S 11 13 6 7 - - -
26/02:30am - - - - - S 9 11 5 6 - - -
26/02:00am - - - - - S 7 11 4 6 - - -
26/01:30am - - - - - S 9 13 5 7 - - -

Other formats

Comma delimited format used in spreadsheet applications
http://www.bom.gov.au/fwo/IDV60801/IDV60801.94853.axf

JavaScript Object Notation format (JSON) in row-major order
http://www.bom.gov.au/fwo/IDV60801/IDV60801.94853.json

Data quality

Most of these data are generated automatically and are frequently updated. Quality checks on data are not normally performed. It is possible for incorrect values to appear. Refer to information at About Latest Weather Observations and please check the disclaimer before using these data.